sensor_id;sensor_type;location;lat;lon;timestamp;P1;durP1;ratioP1;P2;durP2;ratioP2
66567;SDS011;53422;49.296;6.900;2022-10-04T00:00:07;10.45;;;3.35;;
66567;SDS011;53422;49.296;6.900;2022-10-04T00:02:47;8.18;;;3.25;;
66567;SDS011;53422;49.296;6.900;2022-10-04T00:05:15;9.18;;;3.08;;
66567;SDS011;53422;49.296;6.900;2022-10-04T00:07:45;8.18;;;3.13;;
66567;SDS011;53422;49.296;6.900;2022-10-04T00:10:20;9.18;;;3.10;;
66567;SDS011;53422;49.296;6.900;2022-10-04T00:12:57;10.63;;;3.13;;
66567;SDS011;53422;49.296;6.900;2022-10-04T00:15:24;7.38;;;3.33;;
66567;SDS011;53422;49.296;6.900;2022-10-04T00:21:01;8.85;;;3.83;;
66567;SDS011;53422;49.296;6.900;2022-10-04T00:23:39;8.90;;;3.35;;
66567;SDS011;53422;49.296;6.900;2022-10-04T00:26:14;7.63;;;3.33;;
66567;SDS011;53422;49.296;6.900;2022-10-04T00:28:56;7.07;;;2.85;;
66567;SDS011;53422;49.296;6.900;2022-10-04T00:31:25;10.25;;;3.58;;
66567;SDS011;53422;49.296;6.900;2022-10-04T00:41:29;7.80;;;3.38;;
66567;SDS011;53422;49.296;6.900;2022-10-04T00:44:04;7.55;;;3.38;;
66567;SDS011;53422;49.296;6.900;2022-10-04T00:46:34;10.65;;;4.13;;
66567;SDS011;53422;49.296;6.900;2022-10-04T00:49:05;8.35;;;3.92;;
66567;SDS011;53422;49.296;6.900;2022-10-04T00:56:51;7.57;;;3.33;;
66567;SDS011;53422;49.296;6.900;2022-10-04T01:01:53;7.30;;;3.42;;
66567;SDS011;53422;49.296;6.900;2022-10-04T01:07:01;7.82;;;3.50;;
66567;SDS011;53422;49.296;6.900;2022-10-04T01:09:30;8.80;;;3.42;;
66567;SDS011;53422;49.296;6.900;2022-10-04T01:12:09;9.63;;;3.50;;
66567;SDS011;53422;49.296;6.900;2022-10-04T01:15:08;8.73;;;3.38;;
66567;SDS011;53422;49.296;6.900;2022-10-04T01:20:36;9.38;;;3.25;;
66567;SDS011;53422;49.296;6.900;2022-10-04T01:23:03;8.20;;;3.53;;
66567;SDS011;53422;49.296;6.900;2022-10-04T01:25:42;7.97;;;3.25;;
66567;SDS011;53422;49.296;6.900;2022-10-04T01:28:09;7.97;;;3.53;;
66567;SDS011;53422;49.296;6.900;2022-10-04T01:30:34;8.77;;;3.10;;
66567;SDS011;53422;49.296;6.900;2022-10-04T01:33:00;9.85;;;2.95;;
66567;SDS011;53422;49.296;6.900;2022-10-04T01:35:27;7.20;;;2.65;;
66567;SDS011;53422;49.296;6.900;2022-10-04T01:37:53;7.07;;;3.20;;
66567;SDS011;53422;49.296;6.900;2022-10-04T01:40:19;7.57;;;3.42;;
66567;SDS011;53422;49.296;6.900;2022-10-04T01:42:52;8.80;;;3.22;;
66567;SDS011;53422;49.296;6.900;2022-10-04T01:45:28;7.22;;;3.05;;
66567;SDS011;53422;49.296;6.900;2022-10-04T01:48:04;7.43;;;2.95;;
66567;SDS011;53422;49.296;6.900;2022-10-04T01:50:52;8.30;;;3.72;;
66567;SDS011;53422;49.296;6.900;2022-10-04T01:53:27;8.95;;;2.90;;
66567;SDS011;53422;49.296;6.900;2022-10-04T01:56:01;9.25;;;3.03;;
66567;SDS011;53422;49.296;6.900;2022-10-04T01:58:32;7.65;;;3.10;;
66567;SDS011;53422;49.296;6.900;2022-10-04T02:01:07;9.52;;;3.28;;
66567;SDS011;53422;49.296;6.900;2022-10-04T02:03:46;7.22;;;2.72;;
66567;SDS011;53422;49.296;6.900;2022-10-04T02:06:19;9.15;;;3.33;;
66567;SDS011;53422;49.296;6.900;2022-10-04T02:08:47;7.38;;;2.85;;
66567;SDS011;53422;49.296;6.900;2022-10-04T02:11:18;6.47;;;2.75;;
66567;SDS011;53422;49.296;6.900;2022-10-04T02:13:46;6.55;;;3.17;;
66567;SDS011;53422;49.296;6.900;2022-10-04T02:16:14;7.40;;;3.13;;
66567;SDS011;53422;49.296;6.900;2022-10-04T02:18:41;9.55;;;3.13;;
66567;SDS011;53422;49.296;6.900;2022-10-04T02:21:08;6.30;;;2.90;;
66567;SDS011;53422;49.296;6.900;2022-10-04T02:23:35;10.50;;;2.97;;
66567;SDS011;53422;49.296;6.900;2022-10-04T02:26:05;7.75;;;3.00;;
66567;SDS011;53422;49.296;6.900;2022-10-04T02:28:32;6.03;;;2.72;;
66567;SDS011;53422;49.296;6.900;2022-10-04T02:30:59;7.68;;;2.70;;
66567;SDS011;53422;49.296;6.900;2022-10-04T02:33:44;7.03;;;2.80;;
66567;SDS011;53422;49.296;6.900;2022-10-04T02:36:12;7.55;;;2.58;;
66567;SDS011;53422;49.296;6.900;2022-10-04T02:38:47;8.95;;;2.90;;
66567;SDS011;53422;49.296;6.900;2022-10-04T02:46:20;6.47;;;2.85;;
66567;SDS011;53422;49.296;6.900;2022-10-04T02:48:53;7.47;;;2.80;;
66567;SDS011;53422;49.296;6.900;2022-10-04T02:51:27;6.75;;;2.80;;
66567;SDS011;53422;49.296;6.900;2022-10-04T02:54:05;7.80;;;2.97;;
66567;SDS011;53422;49.296;6.900;2022-10-04T02:56:35;8.38;;;2.67;;
66567;SDS011;53422;49.296;6.900;2022-10-04T02:59:02;7.63;;;3.63;;
66567;SDS011;53422;49.296;6.900;2022-10-04T03:01:39;9.23;;;2.92;;
66567;SDS011;53422;49.296;6.900;2022-10-04T03:04:11;8.20;;;3.75;;
66567;SDS011;53422;49.296;6.900;2022-10-04T03:06:39;7.85;;;3.33;;
66567;SDS011;53422;49.296;6.900;2022-10-04T03:09:05;7.85;;;3.28;;
66567;SDS011;53422;49.296;6.900;2022-10-04T03:11:35;7.68;;;3.05;;
66567;SDS011;53422;49.296;6.900;2022-10-04T03:14:05;7.93;;;3.08;;
66567;SDS011;53422;49.296;6.900;2022-10-04T03:16:37;9.32;;;3.47;;
66567;SDS011;53422;49.296;6.900;2022-10-04T03:19:06;7.28;;;2.97;;
66567;SDS011;53422;49.296;6.900;2022-10-04T03:21:33;9.15;;;3.58;;
66567;SDS011;53422;49.296;6.900;2022-10-04T03:24:00;6.22;;;2.60;;
66567;SDS011;53422;49.296;6.900;2022-10-04T03:26:43;7.85;;;3.28;;
66567;SDS011;53422;49.296;6.900;2022-10-04T03:29:21;9.02;;;2.80;;
66567;SDS011;53422;49.296;6.900;2022-10-04T03:34:22;8.68;;;2.70;;
66567;SDS011;53422;49.296;6.900;2022-10-04T03:36:59;6.70;;;2.78;;
66567;SDS011;53422;49.296;6.900;2022-10-04T03:39:27;6.35;;;3.10;;
66567;SDS011;53422;49.296;6.900;2022-10-04T03:42:14;6.78;;;3.05;;
66567;SDS011;53422;49.296;6.900;2022-10-04T03:44:43;7.05;;;2.80;;
66567;SDS011;53422;49.296;6.900;2022-10-04T03:47:11;6.32;;;2.80;;
66567;SDS011;53422;49.296;6.900;2022-10-04T03:49:53;6.50;;;2.70;;
66567;SDS011;53422;49.296;6.900;2022-10-04T03:52:26;6.55;;;2.72;;
66567;SDS011;53422;49.296;6.900;2022-10-04T03:54:56;6.20;;;3.38;;
66567;SDS011;53422;49.296;6.900;2022-10-04T03:57:25;6.90;;;3.13;;
66567;SDS011;53422;49.296;6.900;2022-10-04T03:59:51;7.57;;;3.28;;
66567;SDS011;53422;49.296;6.900;2022-10-04T04:11:00;6.03;;;2.55;;
66567;SDS011;53422;49.296;6.900;2022-10-04T04:13:29;8.02;;;3.28;;
66567;SDS011;53422;49.296;6.900;2022-10-04T04:16:09;13.93;;;3.20;;
66567;SDS011;53422;49.296;6.900;2022-10-04T04:18:36;8.23;;;2.92;;
66567;SDS011;53422;49.296;6.900;2022-10-04T04:21:05;8.93;;;3.45;;
66567;SDS011;53422;49.296;6.900;2022-10-04T04:23:38;7.50;;;3.25;;
66567;SDS011;53422;49.296;6.900;2022-10-04T04:31:36;6.47;;;2.40;;
66567;SDS011;53422;49.296;6.900;2022-10-04T04:34:24;6.43;;;2.67;;
66567;SDS011;53422;49.296;6.900;2022-10-04T04:36:56;6.50;;;2.80;;
66567;SDS011;53422;49.296;6.900;2022-10-04T04:39:29;5.85;;;2.42;;
66567;SDS011;53422;49.296;6.900;2022-10-04T04:42:01;9.20;;;2.90;;
66567;SDS011;53422;49.296;6.900;2022-10-04T04:44:30;6.65;;;2.83;;
66567;SDS011;53422;49.296;6.900;2022-10-04T04:46:56;8.20;;;3.20;;
66567;SDS011;53422;49.296;6.900;2022-10-04T04:49:24;6.93;;;3.05;;
66567;SDS011;53422;49.296;6.900;2022-10-04T04:51:53;7.70;;;2.95;;
66567;SDS011;53422;49.296;6.900;2022-10-04T04:54:22;7.55;;;2.67;;
66567;SDS011;53422;49.296;6.900;2022-10-04T04:56:51;6.25;;;2.92;;
66567;SDS011;53422;49.296;6.900;2022-10-04T04:59:18;4.60;;;2.42;;
66567;SDS011;53422;49.296;6.900;2022-10-04T05:06:41;7.10;;;3.30;;
66567;SDS011;53422;49.296;6.900;2022-10-04T05:09:51;6.32;;;2.83;;
66567;SDS011;53422;49.296;6.900;2022-10-04T05:12:04;7.88;;;3.05;;
66567;SDS011;53422;49.296;6.900;2022-10-04T05:14:51;6.82;;;2.60;;
66567;SDS011;53422;49.296;6.900;2022-10-04T05:17:22;9.25;;;3.42;;
66567;SDS011;53422;49.296;6.900;2022-10-04T05:19:50;9.15;;;3.22;;
66567;SDS011;53422;49.296;6.900;2022-10-04T05:22:20;10.15;;;3.47;;
66567;SDS011;53422;49.296;6.900;2022-10-04T05:24:50;8.80;;;2.95;;
66567;SDS011;53422;49.296;6.900;2022-10-04T05:27:31;8.07;;;2.80;;
66567;SDS011;53422;49.296;6.900;2022-10-04T05:35:37;5.50;;;2.58;;
66567;SDS011;53422;49.296;6.900;2022-10-04T05:41:05;7.75;;;3.33;;
66567;SDS011;53422;49.296;6.900;2022-10-04T05:43:36;7.95;;;3.53;;
66567;SDS011;53422;49.296;6.900;2022-10-04T05:46:12;10.60;;;3.08;;
66567;SDS011;53422;49.296;6.900;2022-10-04T05:48:59;7.32;;;3.20;;
66567;SDS011;53422;49.296;6.900;2022-10-04T05:51:32;7.70;;;3.58;;
66567;SDS011;53422;49.296;6.900;2022-10-04T05:54:11;6.50;;;2.72;;
66567;SDS011;53422;49.296;6.900;2022-10-04T05:59:36;7.10;;;3.10;;
66567;SDS011;53422;49.296;6.900;2022-10-04T06:05:47;8.13;;;3.15;;
66567;SDS011;53422;49.296;6.900;2022-10-04T06:23:49;8.15;;;3.60;;
66567;SDS011;53422;49.296;6.900;2022-10-04T06:26:21;9.88;;;4.10;;
66567;SDS011;53422;49.296;6.900;2022-10-04T06:28:53;10.38;;;3.85;;
66567;SDS011;53422;49.296;6.900;2022-10-04T06:34:13;9.77;;;4.13;;
66567;SDS011;53422;49.296;6.900;2022-10-04T06:48:33;13.38;;;5.18;;
66567;SDS011;53422;49.296;6.900;2022-10-04T07:00:07;9.00;;;4.18;;
66567;SDS011;53422;49.296;6.900;2022-10-04T07:02:45;9.00;;;4.18;;
66567;SDS011;53422;49.296;6.900;2022-10-04T07:08:10;7.45;;;3.47;;
66567;SDS011;53422;49.296;6.900;2022-10-04T07:10:55;8.45;;;3.95;;
66567;SDS011;53422;49.296;6.900;2022-10-04T07:15:56;12.30;;;5.03;;
66567;SDS011;53422;49.296;6.900;2022-10-04T07:18:34;10.60;;;4.43;;
66567;SDS011;53422;49.296;6.900;2022-10-04T07:21:07;12.20;;;4.90;;
66567;SDS011;53422;49.296;6.900;2022-10-04T07:24:10;11.55;;;5.70;;
66567;SDS011;53422;49.296;6.900;2022-10-04T07:29:05;12.55;;;6.18;;
66567;SDS011;53422;49.296;6.900;2022-10-04T07:32:05;11.52;;;5.97;;
66567;SDS011;53422;49.296;6.900;2022-10-04T07:34:53;11.05;;;5.78;;
66567;SDS011;53422;49.296;6.900;2022-10-04T07:37:19;10.38;;;5.03;;
66567;SDS011;53422;49.296;6.900;2022-10-04T07:39:52;9.77;;;5.05;;
66567;SDS011;53422;49.296;6.900;2022-10-04T07:49:59;12.30;;;3.97;;
66567;SDS011;53422;49.296;6.900;2022-10-04T07:53:08;9.65;;;4.68;;
66567;SDS011;53422;49.296;6.900;2022-10-04T07:58:28;15.13;;;5.05;;
66567;SDS011;53422;49.296;6.900;2022-10-04T08:02:07;12.73;;;5.18;;
66567;SDS011;53422;49.296;6.900;2022-10-04T08:23:15;11.55;;;4.38;;
66567;SDS011;53422;49.296;6.900;2022-10-04T09:00:15;16.17;;;4.15;;
66567;SDS011;53422;49.296;6.900;2022-10-04T09:08:23;6.82;;;2.53;;
66567;SDS011;53422;49.296;6.900;2022-10-04T09:20:14;6.47;;;2.60;;
66567;SDS011;53422;49.296;6.900;2022-10-04T09:23:07;7.82;;;2.58;;
66567;SDS011;53422;49.296;6.900;2022-10-04T09:28:26;6.35;;;2.55;;
66567;SDS011;53422;49.296;6.900;2022-10-04T09:36:36;6.50;;;2.53;;
66567;SDS011;53422;49.296;6.900;2022-10-04T09:47:29;5.90;;;2.30;;
66567;SDS011;53422;49.296;6.900;2022-10-04T10:10:14;5.25;;;2.70;;
66567;SDS011;53422;49.296;6.900;2022-10-04T10:13:19;5.82;;;2.45;;
66567;SDS011;53422;49.296;6.900;2022-10-04T10:19:09;8.73;;;3.50;;
66567;SDS011;53422;49.296;6.900;2022-10-04T10:22:03;4.35;;;2.55;;
66567;SDS011;53422;49.296;6.900;2022-10-04T10:30:57;5.88;;;2.35;;
66567;SDS011;53422;49.296;6.900;2022-10-04T10:41:44;6.40;;;2.67;;
66567;SDS011;53422;49.296;6.900;2022-10-04T10:47:34;7.70;;;2.78;;
66567;SDS011;53422;49.296;6.900;2022-10-04T10:53:11;7.43;;;2.75;;
66567;SDS011;53422;49.296;6.900;2022-10-04T10:56:01;4.88;;;2.50;;
66567;SDS011;53422;49.296;6.900;2022-10-04T11:01:32;6.88;;;2.67;;
66567;SDS011;53422;49.296;6.900;2022-10-04T11:21:31;4.85;;;2.40;;
66567;SDS011;53422;49.296;6.900;2022-10-04T11:26:58;6.28;;;2.75;;
66567;SDS011;53422;49.296;6.900;2022-10-04T11:30:12;6.05;;;2.85;;
66567;SDS011;53422;49.296;6.900;2022-10-04T11:40:58;5.65;;;2.60;;
66567;SDS011;53422;49.296;6.900;2022-10-04T12:01:25;8.38;;;2.75;;
66567;SDS011;53422;49.296;6.900;2022-10-04T12:09:24;14.18;;;5.13;;
66567;SDS011;53422;49.296;6.900;2022-10-04T12:20:47;10.45;;;4.45;;
66567;SDS011;53422;49.296;6.900;2022-10-04T12:23:48;8.15;;;2.95;;
66567;SDS011;53422;49.296;6.900;2022-10-04T12:26:52;7.43;;;2.95;;
66567;SDS011;53422;49.296;6.900;2022-10-04T12:40:56;5.18;;;2.80;;
66567;SDS011;53422;49.296;6.900;2022-10-04T12:46:56;4.82;;;2.47;;
66567;SDS011;53422;49.296;6.900;2022-10-04T12:52:22;6.88;;;2.53;;
66567;SDS011;53422;49.296;6.900;2022-10-04T13:05:50;5.30;;;2.28;;
66567;SDS011;53422;49.296;6.900;2022-10-04T13:17:08;4.72;;;2.33;;
66567;SDS011;53422;49.296;6.900;2022-10-04T13:22:54;5.45;;;2.45;;
66567;SDS011;53422;49.296;6.900;2022-10-04T13:31:12;3.80;;;2.10;;
66567;SDS011;53422;49.296;6.900;2022-10-04T13:41:33;4.95;;;2.10;;
66567;SDS011;53422;49.296;6.900;2022-10-04T13:44:24;4.15;;;2.00;;
66567;SDS011;53422;49.296;6.900;2022-10-04T13:55:19;4.05;;;2.10;;
66567;SDS011;53422;49.296;6.900;2022-10-04T13:58:13;4.78;;;2.10;;
66567;SDS011;53422;49.296;6.900;2022-10-04T14:29:52;5.95;;;2.42;;
66567;SDS011;53422;49.296;6.900;2022-10-04T14:32:43;4.45;;;2.25;;
66567;SDS011;53422;49.296;6.900;2022-10-04T14:41:00;4.30;;;1.95;;
66567;SDS011;53422;49.296;6.900;2022-10-04T14:54:50;4.97;;;2.33;;
66567;SDS011;53422;49.296;6.900;2022-10-04T15:00:19;4.97;;;2.10;;
66567;SDS011;53422;49.296;6.900;2022-10-04T15:11:08;3.00;;;1.77;;
66567;SDS011;53422;49.296;6.900;2022-10-04T15:13:49;3.95;;;1.92;;
66567;SDS011;53422;49.296;6.900;2022-10-04T15:21:52;4.63;;;1.95;;
66567;SDS011;53422;49.296;6.900;2022-10-04T15:24:46;5.63;;;2.17;;
66567;SDS011;53422;49.296;6.900;2022-10-04T15:35:41;4.38;;;2.08;;
66567;SDS011;53422;49.296;6.900;2022-10-04T15:38:25;3.95;;;1.80;;
66567;SDS011;53422;49.296;6.900;2022-10-04T15:44:11;4.63;;;1.73;;
66567;SDS011;53422;49.296;6.900;2022-10-04T15:57:59;3.42;;;1.80;;
66567;SDS011;53422;49.296;6.900;2022-10-04T16:17:05;3.00;;;1.48;;
66567;SDS011;53422;49.296;6.900;2022-10-04T16:20:19;5.20;;;1.63;;
66567;SDS011;53422;49.296;6.900;2022-10-04T16:22:37;9.63;;;2.83;;
66567;SDS011;53422;49.296;6.900;2022-10-04T16:30:23;39.58;;;11.38;;
66567;SDS011;53422;49.296;6.900;2022-10-04T16:35:46;102.95;;;32.40;;
66567;SDS011;53422;49.296;6.900;2022-10-04T16:38:26;112.53;;;37.75;;
66567;SDS011;53422;49.296;6.900;2022-10-04T16:41:08;83.97;;;27.70;;
66567;SDS011;53422;49.296;6.900;2022-10-04T16:43:46;44.30;;;15.15;;
66567;SDS011;53422;49.296;6.900;2022-10-04T16:48:57;23.80;;;8.27;;
66567;SDS011;53422;49.296;6.900;2022-10-04T16:51:32;15.55;;;5.78;;
66567;SDS011;53422;49.296;6.900;2022-10-04T16:54:55;12.32;;;4.45;;
66567;SDS011;53422;49.296;6.900;2022-10-04T16:57:18;7.93;;;2.95;;
66567;SDS011;53422;49.296;6.900;2022-10-04T16:59:51;7.38;;;2.70;;
66567;SDS011;53422;49.296;6.900;2022-10-04T17:05:27;8.52;;;3.05;;
66567;SDS011;53422;49.296;6.900;2022-10-04T17:16:13;7.85;;;2.78;;
66567;SDS011;53422;49.296;6.900;2022-10-04T17:19:12;8.38;;;2.75;;
66567;SDS011;53422;49.296;6.900;2022-10-04T17:22:00;4.63;;;2.22;;
66567;SDS011;53422;49.296;6.900;2022-10-04T17:24:59;5.43;;;2.47;;
66567;SDS011;53422;49.296;6.900;2022-10-04T17:30:51;7.32;;;3.08;;
66567;SDS011;53422;49.296;6.900;2022-10-04T17:36:55;7.65;;;2.75;;
66567;SDS011;53422;49.296;6.900;2022-10-04T17:45:30;7.90;;;3.13;;
66567;SDS011;53422;49.296;6.900;2022-10-04T17:48:22;5.97;;;3.00;;
66567;SDS011;53422;49.296;6.900;2022-10-04T17:51:12;6.00;;;3.50;;
66567;SDS011;53422;49.296;6.900;2022-10-04T17:54:09;5.82;;;2.90;;
66567;SDS011;53422;49.296;6.900;2022-10-04T17:59:29;7.57;;;3.85;;
66567;SDS011;53422;49.296;6.900;2022-10-04T18:02:10;12.13;;;4.63;;
66567;SDS011;53422;49.296;6.900;2022-10-04T18:05:32;14.35;;;4.90;;
66567;SDS011;53422;49.296;6.900;2022-10-04T18:07:43;12.27;;;5.00;;
66567;SDS011;53422;49.296;6.900;2022-10-04T18:12:47;10.13;;;4.32;;
66567;SDS011;53422;49.296;6.900;2022-10-04T18:15:21;10.48;;;3.78;;
66567;SDS011;53422;49.296;6.900;2022-10-04T18:18:20;8.70;;;3.45;;
66567;SDS011;53422;49.296;6.900;2022-10-04T18:21:02;10.23;;;3.58;;
66567;SDS011;53422;49.296;6.900;2022-10-04T18:23:32;12.20;;;3.20;;
66567;SDS011;53422;49.296;6.900;2022-10-04T18:26:13;7.30;;;3.17;;
66567;SDS011;53422;49.296;6.900;2022-10-04T18:28:44;8.98;;;3.00;;
66567;SDS011;53422;49.296;6.900;2022-10-04T18:34:24;6.97;;;3.10;;
66567;SDS011;53422;49.296;6.900;2022-10-04T18:36:56;4.97;;;3.13;;
66567;SDS011;53422;49.296;6.900;2022-10-04T18:39:45;6.10;;;3.10;;
66567;SDS011;53422;49.296;6.900;2022-10-04T18:42:24;8.82;;;3.67;;
66567;SDS011;53422;49.296;6.900;2022-10-04T18:44:57;10.88;;;4.07;;
66567;SDS011;53422;49.296;6.900;2022-10-04T18:47:45;6.53;;;3.65;;
66567;SDS011;53422;49.296;6.900;2022-10-04T18:55:58;8.27;;;4.43;;
66567;SDS011;53422;49.296;6.900;2022-10-04T19:21:10;10.82;;;5.38;;
66567;SDS011;53422;49.296;6.900;2022-10-04T19:32:04;10.27;;;5.13;;
66567;SDS011;53422;49.296;6.900;2022-10-04T19:40:21;13.95;;;5.45;;
66567;SDS011;53422;49.296;6.900;2022-10-04T19:43:09;16.27;;;5.85;;
66567;SDS011;53422;49.296;6.900;2022-10-04T19:45:49;14.63;;;6.32;;
66567;SDS011;53422;49.296;6.900;2022-10-04T19:48:39;13.15;;;5.30;;
66567;SDS011;53422;49.296;6.900;2022-10-04T19:51:23;13.50;;;5.90;;
66567;SDS011;53422;49.296;6.900;2022-10-04T19:54:06;11.57;;;5.82;;
66567;SDS011;53422;49.296;6.900;2022-10-04T19:56:59;13.50;;;5.57;;
66567;SDS011;53422;49.296;6.900;2022-10-04T19:59:34;10.55;;;5.53;;
66567;SDS011;53422;49.296;6.900;2022-10-04T20:02:08;11.63;;;5.65;;
66567;SDS011;53422;49.296;6.900;2022-10-04T20:04:34;11.27;;;6.57;;
66567;SDS011;53422;49.296;6.900;2022-10-04T20:07:06;11.00;;;6.10;;
66567;SDS011;53422;49.296;6.900;2022-10-04T20:13:03;10.68;;;5.35;;
66567;SDS011;53422;49.296;6.900;2022-10-04T20:17:51;14.60;;;6.43;;
66567;SDS011;53422;49.296;6.900;2022-10-04T20:32:04;9.90;;;5.03;;
66567;SDS011;53422;49.296;6.900;2022-10-04T20:37:04;11.77;;;5.05;;
66567;SDS011;53422;49.296;6.900;2022-10-04T20:47:32;10.32;;;5.25;;
66567;SDS011;53422;49.296;6.900;2022-10-04T20:50:36;11.55;;;4.90;;
66567;SDS011;53422;49.296;6.900;2022-10-04T20:53:06;11.52;;;5.20;;
66567;SDS011;53422;49.296;6.900;2022-10-04T20:55:38;14.07;;;5.38;;
66567;SDS011;53422;49.296;6.900;2022-10-04T20:58:24;9.93;;;5.13;;
66567;SDS011;53422;49.296;6.900;2022-10-04T21:00:59;10.02;;;4.78;;
66567;SDS011;53422;49.296;6.900;2022-10-04T21:03:38;14.32;;;5.68;;
66567;SDS011;53422;49.296;6.900;2022-10-04T21:06:04;10.40;;;5.05;;
66567;SDS011;53422;49.296;6.900;2022-10-04T21:08:32;9.88;;;4.82;;
66567;SDS011;53422;49.296;6.900;2022-10-04T21:21:55;12.90;;;5.78;;
66567;SDS011;53422;49.296;6.900;2022-10-04T21:27:31;14.43;;;6.28;;
66567;SDS011;53422;49.296;6.900;2022-10-04T21:30:03;15.98;;;6.43;;
66567;SDS011;53422;49.296;6.900;2022-10-04T21:32:34;13.68;;;6.07;;
66567;SDS011;53422;49.296;6.900;2022-10-04T21:35:00;18.00;;;7.95;;
66567;SDS011;53422;49.296;6.900;2022-10-04T21:37:27;15.18;;;7.70;;
66567;SDS011;53422;49.296;6.900;2022-10-04T21:39:53;16.95;;;7.05;;
66567;SDS011;53422;49.296;6.900;2022-10-04T21:42:20;16.73;;;6.75;;
66567;SDS011;53422;49.296;6.900;2022-10-04T21:44:46;11.40;;;5.97;;
66567;SDS011;53422;49.296;6.900;2022-10-04T21:47:11;14.57;;;6.78;;
66567;SDS011;53422;49.296;6.900;2022-10-04T21:49:37;12.55;;;6.50;;
66567;SDS011;53422;49.296;6.900;2022-10-04T21:52:03;16.00;;;6.47;;
66567;SDS011;53422;49.296;6.900;2022-10-04T21:54:29;16.70;;;5.90;;
66567;SDS011;53422;49.296;6.900;2022-10-04T21:56:55;14.13;;;5.93;;
66567;SDS011;53422;49.296;6.900;2022-10-04T21:59:20;11.40;;;5.43;;
66567;SDS011;53422;49.296;6.900;2022-10-04T22:01:46;12.13;;;5.47;;
66567;SDS011;53422;49.296;6.900;2022-10-04T22:04:12;14.38;;;6.43;;
66567;SDS011;53422;49.296;6.900;2022-10-04T22:06:37;17.23;;;6.57;;
66567;SDS011;53422;49.296;6.900;2022-10-04T22:09:03;13.07;;;6.05;;
66567;SDS011;53422;49.296;6.900;2022-10-04T22:11:29;17.60;;;6.82;;
66567;SDS011;53422;49.296;6.900;2022-10-04T22:13:55;11.85;;;6.45;;
66567;SDS011;53422;49.296;6.900;2022-10-04T22:16:20;9.50;;;6.00;;
66567;SDS011;53422;49.296;6.900;2022-10-04T22:18:46;13.80;;;5.95;;
66567;SDS011;53422;49.296;6.900;2022-10-04T22:21:11;12.10;;;6.40;;
66567;SDS011;53422;49.296;6.900;2022-10-04T22:23:41;13.35;;;5.78;;
66567;SDS011;53422;49.296;6.900;2022-10-04T22:26:11;12.38;;;6.25;;
66567;SDS011;53422;49.296;6.900;2022-10-04T22:28:43;11.93;;;5.82;;
66567;SDS011;53422;49.296;6.900;2022-10-04T22:31:11;14.95;;;6.45;;
66567;SDS011;53422;49.296;6.900;2022-10-04T22:33:40;10.52;;;5.80;;
66567;SDS011;53422;49.296;6.900;2022-10-04T22:38:36;13.43;;;6.03;;
66567;SDS011;53422;49.296;6.900;2022-10-04T22:41:07;12.48;;;5.88;;
66567;SDS011;53422;49.296;6.900;2022-10-04T22:43:37;15.23;;;5.78;;
66567;SDS011;53422;49.296;6.900;2022-10-04T22:46:03;11.35;;;5.82;;
66567;SDS011;53422;49.296;6.900;2022-10-04T22:48:28;11.70;;;5.90;;
66567;SDS011;53422;49.296;6.900;2022-10-04T22:50:55;13.40;;;5.72;;
66567;SDS011;53422;49.296;6.900;2022-10-04T22:53:22;11.15;;;5.78;;
66567;SDS011;53422;49.296;6.900;2022-10-04T22:55:48;12.43;;;5.38;;
66567;SDS011;53422;49.296;6.900;2022-10-04T22:58:16;12.77;;;5.30;;
66567;SDS011;53422;49.296;6.900;2022-10-04T23:00:42;12.68;;;6.05;;
66567;SDS011;53422;49.296;6.900;2022-10-04T23:05:42;12.20;;;5.90;;
66567;SDS011;53422;49.296;6.900;2022-10-04T23:08:09;12.77;;;5.40;;
66567;SDS011;53422;49.296;6.900;2022-10-04T23:10:34;9.80;;;5.78;;
66567;SDS011;53422;49.296;6.900;2022-10-04T23:13:00;11.60;;;5.22;;
66567;SDS011;53422;49.296;6.900;2022-10-04T23:15:25;8.90;;;4.63;;
66567;SDS011;53422;49.296;6.900;2022-10-04T23:17:52;11.25;;;5.40;;
66567;SDS011;53422;49.296;6.900;2022-10-04T23:20:21;12.68;;;5.25;;
66567;SDS011;53422;49.296;6.900;2022-10-04T23:22:48;10.88;;;4.88;;
66567;SDS011;53422;49.296;6.900;2022-10-04T23:25:19;11.95;;;5.22;;
66567;SDS011;53422;49.296;6.900;2022-10-04T23:27:56;9.70;;;4.55;;
66567;SDS011;53422;49.296;6.900;2022-10-04T23:30:25;9.65;;;4.80;;
66567;SDS011;53422;49.296;6.900;2022-10-04T23:32:52;10.88;;;5.28;;
66567;SDS011;53422;49.296;6.900;2022-10-04T23:35:22;10.25;;;5.00;;
66567;SDS011;53422;49.296;6.900;2022-10-04T23:37:49;10.00;;;4.97;;
66567;SDS011;53422;49.296;6.900;2022-10-04T23:40:17;10.55;;;4.82;;
66567;SDS011;53422;49.296;6.900;2022-10-04T23:42:45;10.10;;;4.95;;
66567;SDS011;53422;49.296;6.900;2022-10-04T23:45:21;10.93;;;5.07;;
66567;SDS011;53422;49.296;6.900;2022-10-04T23:47:48;9.75;;;4.82;;
66567;SDS011;53422;49.296;6.900;2022-10-04T23:50:21;8.85;;;4.82;;
66567;SDS011;53422;49.296;6.900;2022-10-04T23:52:55;8.15;;;4.18;;
66567;SDS011;53422;49.296;6.900;2022-10-04T23:55:33;10.68;;;4.65;;
66567;SDS011;53422;49.296;6.900;2022-10-04T23:58:00;10.68;;;4.78;;
